createdAt,value
2023-04-25T00:00:58.496Z,100.00
2023-04-25T00:03:25.728Z,100.00
2023-04-25T00:05:52.576Z,100.00
2023-04-25T00:08:19.473Z,100.00
2023-04-25T00:10:46.326Z,100.00
2023-04-25T00:13:13.872Z,100.00
2023-04-25T00:15:42.063Z,100.00
2023-04-25T00:18:09.322Z,100.00
2023-04-25T00:20:36.530Z,100.00
2023-04-25T00:23:05.730Z,100.00
2023-04-25T00:25:33.784Z,99.97
2023-04-25T00:28:00.706Z,100.00
2023-04-25T00:30:27.348Z,100.00
2023-04-25T00:32:54.084Z,100.00
2023-04-25T00:35:21.684Z,100.00
2023-04-25T00:37:48.886Z,100.00
2023-04-25T00:40:15.594Z,100.00
2023-04-25T00:42:42.293Z,100.00
2023-04-25T00:45:09.276Z,100.00
2023-04-25T00:47:36.422Z,100.00
2023-04-25T00:50:03.348Z,100.00
2023-04-25T00:52:30.652Z,100.00
2023-04-25T00:54:58.171Z,100.00
2023-04-25T00:57:25.859Z,100.00
2023-04-25T00:59:52.917Z,100.00
2023-04-25T01:02:21.090Z,100.00
2023-04-25T01:04:48.038Z,100.00
2023-04-25T01:07:16.409Z,100.00
2023-04-25T01:09:43.189Z,100.00
2023-04-25T01:12:09.992Z,100.00
2023-04-25T01:14:37.433Z,100.00
2023-04-25T01:17:05.865Z,100.00
2023-04-25T01:19:33.007Z,100.00
2023-04-25T01:22:00.318Z,100.00
2023-04-25T01:24:27.661Z,100.00
2023-04-25T01:26:56.803Z,100.00
2023-04-25T01:29:25.346Z,100.00
2023-04-25T01:31:52.887Z,100.00
2023-04-25T01:34:19.790Z,100.00
2023-04-25T01:36:49.329Z,100.00
2023-04-25T01:39:16.749Z,100.00
2023-04-25T01:41:46.380Z,100.00
2023-04-25T01:44:13.450Z,100.00
2023-04-25T01:46:40.351Z,100.00
2023-04-25T01:49:07.370Z,100.00
2023-04-25T01:51:34.147Z,100.00
2023-04-25T01:54:01.196Z,100.00
2023-04-25T01:56:32.987Z,100.00
2023-04-25T01:59:00.108Z,100.00
2023-04-25T02:01:53.216Z,100.00
2023-04-25T02:04:23.483Z,100.00
2023-04-25T02:06:50.712Z,100.00
2023-04-25T02:09:17.583Z,100.00
2023-04-25T02:11:48.880Z,100.00
2023-04-25T02:14:27.419Z,100.00
2023-04-25T02:17:06.122Z,100.00
2023-04-25T02:19:33.148Z,100.00
2023-04-25T02:21:59.901Z,100.00
2023-04-25T02:24:28.353Z,100.00
2023-04-25T02:26:56.532Z,100.00
2023-04-25T02:29:23.374Z,100.00
2023-04-25T02:31:50.162Z,100.00
2023-04-25T02:34:17.661Z,100.00
2023-04-25T02:36:44.495Z,100.00
2023-04-25T02:39:11.287Z,100.00
2023-04-25T02:41:37.963Z,100.00
2023-04-25T02:44:04.615Z,100.00
2023-04-25T02:46:39.120Z,100.00
2023-04-25T02:49:06.835Z,100.00
2023-04-25T02:51:34.834Z,100.00
2023-04-25T02:54:01.755Z,100.00
2023-04-25T02:56:28.725Z,100.00
2023-04-25T02:58:55.538Z,100.00
2023-04-25T03:01:22.522Z,100.00
2023-04-25T03:03:49.832Z,100.00
2023-04-25T03:06:16.951Z,100.00
2023-04-25T03:08:43.852Z,100.00
2023-04-25T03:11:11.045Z,100.00
2023-04-25T03:13:37.809Z,100.00
2023-04-25T03:16:05.111Z,100.00
2023-04-25T03:18:31.961Z,100.00
2023-04-25T03:20:59.030Z,100.00
2023-04-25T03:23:26.447Z,100.00
2023-04-25T03:25:53.216Z,100.00
2023-04-25T03:28:20.492Z,100.00
2023-04-25T03:30:47.229Z,100.00
2023-04-25T03:33:13.916Z,100.00
2023-04-25T03:35:40.930Z,100.00
2023-04-25T03:38:07.795Z,100.00
2023-04-25T03:40:37.057Z,100.00
2023-04-25T03:43:10.412Z,100.00
2023-04-25T03:45:37.216Z,100.00
2023-04-25T03:48:04.336Z,100.00
2023-04-25T03:50:31.292Z,100.00
2023-04-25T03:52:58.378Z,100.00
2023-04-25T03:55:26.522Z,100.00
2023-04-25T03:57:53.403Z,100.00
2023-04-25T04:00:20.415Z,100.00
2023-04-25T04:02:51.089Z,100.00
2023-04-25T04:05:19.022Z,100.00
2023-04-25T04:07:52.275Z,100.00
2023-04-25T04:10:19.206Z,100.00
2023-04-25T04:12:46.058Z,100.00
2023-04-25T04:15:12.994Z,100.00
2023-04-25T04:17:41.746Z,100.00
2023-04-25T04:20:09.029Z,100.00
2023-04-25T04:22:37.048Z,100.00
2023-04-25T04:25:08.405Z,100.00
2023-04-25T04:28:04.213Z,100.00
2023-04-25T04:30:53.132Z,100.00
2023-04-25T04:33:20.060Z,100.00
2023-04-25T04:35:52.779Z,100.00
2023-04-25T04:38:20.152Z,100.00
2023-04-25T04:40:48.120Z,100.00
2023-04-25T04:43:37.825Z,100.00
2023-04-25T04:46:25.062Z,100.00
2023-04-25T04:49:14.221Z,100.00
2023-04-25T04:52:07.239Z,100.00
2023-04-25T04:54:49.795Z,100.00
2023-04-25T04:57:39.889Z,100.00
2023-04-25T05:00:21.252Z,100.00
2023-04-25T05:03:06.988Z,100.00
2023-04-25T05:05:53.310Z,100.00
2023-04-25T05:08:40.887Z,100.00
2023-04-25T05:11:10.639Z,100.00
2023-04-25T05:13:49.110Z,100.00
2023-04-25T05:16:37.823Z,98.83
2023-04-25T05:19:23.935Z,97.20
2023-04-25T05:22:03.035Z,97.02
2023-04-25T05:24:43.635Z,96.53
2023-04-25T05:27:28.359Z,95.96
2023-04-25T05:30:13.986Z,92.93
2023-04-25T05:33:02.124Z,91.57
2023-04-25T05:35:29.403Z,91.82
2023-04-25T05:37:56.168Z,92.01
2023-04-25T05:40:35.412Z,89.14
2023-04-25T05:43:12.336Z,87.22
2023-04-25T05:46:00.329Z,86.80
2023-04-25T05:48:27.323Z,86.52
2023-04-25T05:51:07.160Z,84.09
2023-04-25T05:53:56.323Z,82.06
2023-04-25T05:56:23.458Z,80.25
2023-04-25T05:58:52.701Z,79.12
2023-04-25T06:01:19.571Z,78.25
2023-04-25T06:03:46.923Z,73.38
2023-04-25T06:06:13.694Z,72.60
2023-04-25T06:08:41.560Z,71.05
2023-04-25T06:11:11.950Z,71.52
2023-04-25T06:13:38.929Z,70.32
2023-04-25T06:16:06.575Z,70.42
2023-04-25T06:18:33.591Z,69.24
2023-04-25T06:21:00.895Z,68.66
2023-04-25T06:23:28.395Z,67.73
2023-04-25T06:26:02.852Z,68.92
2023-04-25T06:28:30.621Z,66.82
2023-04-25T06:30:57.612Z,65.83
2023-04-25T06:33:24.812Z,64.07
2023-04-25T06:35:51.792Z,64.05
2023-04-25T06:38:22.365Z,63.53
2023-04-25T06:40:51.874Z,61.65
2023-04-25T06:43:18.959Z,60.29
2023-04-25T06:46:09.809Z,59.76
2023-04-25T06:48:41.646Z,59.84
2023-04-25T06:51:08.465Z,58.84
2023-04-25T06:53:35.532Z,54.57
2023-04-25T06:56:04.097Z,51.26
2023-04-25T06:58:41.123Z,49.06
2023-04-25T07:01:16.047Z,51.20
2023-04-25T07:03:43.059Z,51.26
2023-04-25T07:06:14.044Z,50.49
2023-04-25T07:08:40.995Z,49.97
2023-04-25T07:11:08.686Z,50.72
2023-04-25T07:13:36.903Z,48.85
2023-04-25T07:16:04.295Z,47.83
2023-04-25T07:18:31.446Z,47.50
2023-04-25T07:21:00.161Z,47.61
2023-04-25T07:23:26.925Z,46.24
2023-04-25T07:25:54.167Z,45.83
2023-04-25T07:28:22.281Z,45.46
2023-04-25T07:30:49.091Z,43.90
2023-04-25T07:33:15.874Z,42.54
2023-04-25T07:35:42.648Z,43.53
2023-04-25T07:38:10.772Z,44.21
2023-04-25T07:40:37.733Z,44.22
2023-04-25T07:43:07.330Z,43.53
2023-04-25T07:45:39.577Z,43.12
2023-04-25T07:48:06.402Z,44.47
2023-04-25T07:50:35.234Z,42.88
2023-04-25T07:53:01.932Z,43.08
2023-04-25T07:55:33.461Z,41.74
2023-04-25T07:58:04.960Z,41.63
2023-04-25T08:00:33.011Z,42.75
2023-04-25T08:03:18.183Z,42.35
2023-04-25T08:05:46.300Z,41.63
2023-04-25T08:08:14.088Z,42.27
2023-04-25T08:10:42.533Z,41.95
2023-04-25T08:13:09.678Z,41.49
2023-04-25T08:15:37.119Z,40.93
2023-04-25T08:18:04.880Z,40.23
2023-04-25T08:20:32.110Z,41.20
2023-04-25T08:22:59.824Z,41.59
2023-04-25T08:25:40.608Z,41.27
2023-04-25T08:28:08.167Z,41.14
2023-04-25T08:30:35.678Z,40.95
2023-04-25T08:33:03.178Z,40.92
2023-04-25T08:35:50.787Z,41.65
2023-04-25T08:38:18.336Z,40.39
2023-04-25T08:40:46.374Z,39.03
2023-04-25T08:43:19.407Z,39.08
2023-04-25T08:45:46.774Z,39.41
2023-04-25T08:48:18.936Z,38.45
2023-04-25T08:50:46.431Z,38.06
2023-04-25T08:53:19.783Z,38.96
2023-04-25T08:55:47.195Z,40.23
2023-04-25T08:58:14.805Z,38.45
2023-04-25T09:00:42.046Z,39.33
2023-04-25T09:03:09.375Z,38.92
2023-04-25T09:05:36.912Z,38.00
2023-04-25T09:08:03.702Z,37.63
2023-04-25T09:13:25.643Z,36.30
2023-04-25T09:16:15.193Z,37.96
2023-04-25T09:19:00.292Z,37.02
2023-04-25T09:21:28.007Z,36.27
2023-04-25T09:23:54.962Z,36.72
2023-04-25T09:26:22.121Z,36.61
2023-04-25T09:28:50.102Z,36.14
2023-04-25T09:31:25.920Z,35.17
2023-04-25T09:34:01.555Z,34.26
2023-04-25T09:36:30.302Z,34.94
2023-04-25T09:39:20.081Z,35.49
2023-04-25T09:41:56.345Z,35.92
2023-04-25T09:44:27.651Z,36.28
2023-04-25T09:46:55.248Z,36.10
2023-04-25T09:49:25.479Z,36.62
2023-04-25T09:52:06.628Z,36.18
2023-04-25T09:54:38.657Z,35.38
2023-04-25T09:57:12.833Z,35.43
2023-04-25T09:59:43.652Z,36.45
2023-04-25T10:02:11.207Z,36.79
2023-04-25T10:04:38.773Z,35.08
2023-04-25T10:07:11.117Z,35.51
2023-04-25T10:09:39.931Z,37.07
2023-04-25T10:12:08.201Z,36.91
2023-04-25T10:14:35.358Z,34.96
2023-04-25T10:17:02.295Z,35.25
2023-04-25T10:19:30.126Z,34.61
2023-04-25T10:22:07.631Z,35.16
2023-04-25T10:24:36.612Z,35.44
2023-04-25T10:27:03.530Z,35.68
2023-04-25T10:29:30.417Z,36.06
2023-04-25T10:31:57.178Z,36.01
2023-04-25T10:34:26.685Z,36.23
2023-04-25T10:36:54.094Z,35.74
2023-04-25T10:39:25.484Z,36.47
2023-04-25T10:41:59.036Z,36.20
2023-04-25T10:44:29.495Z,34.87
2023-04-25T10:46:57.804Z,35.32
2023-04-25T10:49:32.334Z,36.16
2023-04-25T10:52:26.031Z,36.00
2023-04-25T10:54:53.518Z,35.63
2023-04-25T10:57:39.176Z,36.05
2023-04-25T11:00:08.924Z,36.04
2023-04-25T11:02:45.618Z,36.38
2023-04-25T11:05:27.100Z,35.94
2023-04-25T11:08:06.490Z,35.53
2023-04-25T11:10:45.159Z,36.62
2023-04-25T11:13:11.952Z,36.15
2023-04-25T11:15:38.974Z,35.51
2023-04-25T11:18:06.668Z,36.11
2023-04-25T11:20:33.326Z,35.72
2023-04-25T11:23:00.581Z,35.65
2023-04-25T11:25:27.256Z,36.06
2023-04-25T11:27:57.978Z,35.81
2023-04-25T11:30:25.854Z,34.48
2023-04-25T11:32:52.687Z,34.88
2023-04-25T11:35:20.628Z,35.03
2023-04-25T11:37:47.395Z,33.88
2023-04-25T11:40:14.151Z,33.63
2023-04-25T11:42:45.332Z,33.56
2023-04-25T11:45:12.222Z,32.63
2023-04-25T11:47:39.201Z,34.30
2023-04-25T11:50:07.780Z,35.38
2023-04-25T11:52:45.409Z,34.73
2023-04-25T11:55:16.720Z,34.92
2023-04-25T11:57:45.073Z,34.66
2023-04-25T12:00:15.127Z,34.19
2023-04-25T12:02:45.716Z,33.77
2023-04-25T12:05:30.483Z,33.90
2023-04-25T12:07:58.462Z,34.74
2023-04-25T12:10:26.147Z,35.37
2023-04-25T12:12:53.241Z,34.81
2023-04-25T12:15:26.537Z,33.79
2023-04-25T12:17:54.573Z,33.44
2023-04-25T12:20:24.770Z,33.75
2023-04-25T12:22:51.751Z,33.79
2023-04-25T12:25:38.611Z,34.09
2023-04-25T12:28:14.822Z,34.40
2023-04-25T12:31:06.133Z,34.75
2023-04-25T12:33:34.177Z,34.10
2023-04-25T12:36:08.049Z,34.33
2023-04-25T12:38:39.150Z,34.90
2023-04-25T12:41:06.274Z,35.48
2023-04-25T12:43:33.464Z,36.08
2023-04-25T12:46:00.170Z,36.53
2023-04-25T12:48:27.012Z,35.89
2023-04-25T12:50:53.860Z,35.36
2023-04-25T12:53:21.712Z,34.66
2023-04-25T12:55:48.700Z,35.29
2023-04-25T12:58:15.886Z,35.25
2023-04-25T13:00:43.460Z,35.42
2023-04-25T13:03:11.539Z,35.35
2023-04-25T13:05:39.306Z,34.96
2023-04-25T13:08:05.974Z,33.93
2023-04-25T13:10:34.242Z,33.54
2023-04-25T13:13:01.814Z,32.26
2023-04-25T13:15:28.727Z,32.46
2023-04-25T13:17:56.358Z,33.13
2023-04-25T13:20:23.268Z,33.62
2023-04-25T13:22:50.246Z,33.73
2023-04-25T13:25:16.926Z,33.25
2023-04-25T13:27:44.754Z,32.70
2023-04-25T13:30:11.814Z,33.01
2023-04-25T13:32:39.888Z,32.60
2023-04-25T13:35:10.498Z,32.74
2023-04-25T13:37:38.382Z,33.09
2023-04-25T13:40:09.760Z,32.81
2023-04-25T13:42:37.125Z,32.42
2023-04-25T13:45:04.091Z,32.63
2023-04-25T13:47:31.455Z,32.11
2023-04-25T13:49:58.092Z,32.53
2023-04-25T13:52:24.731Z,32.84
2023-04-25T13:54:51.616Z,33.77
2023-04-25T13:57:18.356Z,33.99
2023-04-25T13:59:45.064Z,34.45
2023-04-25T14:02:12.182Z,35.03
2023-04-25T14:04:38.942Z,35.56
2023-04-25T14:07:05.921Z,35.44
2023-04-25T14:09:32.828Z,35.77
2023-04-25T14:11:59.927Z,36.17
2023-04-25T14:14:26.720Z,36.72
2023-04-25T14:16:54.605Z,36.42
2023-04-25T14:19:22.318Z,36.49
2023-04-25T14:21:49.431Z,36.12
2023-04-25T14:24:16.223Z,35.87
2023-04-25T14:26:45.864Z,36.09
2023-04-25T14:29:12.680Z,36.10
2023-04-25T14:31:40.700Z,35.33
2023-04-25T14:34:07.818Z,35.40
2023-04-25T14:36:35.537Z,35.07
2023-04-25T14:39:02.197Z,34.98
2023-04-25T14:41:29.004Z,34.82
2023-04-25T14:43:57.354Z,34.98
2023-04-25T14:46:24.038Z,33.89
2023-04-25T14:48:51.132Z,34.63
2023-04-25T14:51:17.805Z,34.21
2023-04-25T14:53:44.569Z,33.85
2023-04-25T14:56:11.601Z,33.62
2023-04-25T14:58:39.351Z,33.44
2023-04-25T15:01:07.184Z,32.77
2023-04-25T15:03:34.159Z,33.54
2023-04-25T15:06:01.075Z,34.18
2023-04-25T15:08:28.171Z,33.43
2023-04-25T15:10:54.823Z,32.84
2023-04-25T15:13:21.457Z,32.27
2023-04-25T15:15:51.438Z,32.49
2023-04-25T15:18:22.328Z,32.77
2023-04-25T15:20:49.223Z,32.35
2023-04-25T15:23:15.870Z,32.15
2023-04-25T15:25:42.697Z,32.32
2023-04-25T15:28:09.426Z,32.92
2023-04-25T15:30:36.508Z,33.34
2023-04-25T15:33:03.306Z,33.42
2023-04-25T15:35:30.375Z,33.49
2023-04-25T15:37:57.147Z,33.71
2023-04-25T15:40:23.890Z,33.34
2023-04-25T15:42:51.310Z,33.73
2023-04-25T15:45:19.366Z,33.47
2023-04-25T15:47:46.080Z,34.04
2023-04-25T15:50:12.950Z,34.07
2023-04-25T15:52:40.331Z,33.97
2023-04-25T15:55:08.231Z,33.82
2023-04-25T15:57:35.080Z,33.59
2023-04-25T16:00:04.860Z,32.85
2023-04-25T16:02:39.213Z,32.79
2023-04-25T16:05:06.511Z,32.97
2023-04-25T16:07:33.383Z,32.56
2023-04-25T16:09:59.994Z,32.18
2023-04-25T16:12:27.954Z,32.46
2023-04-25T16:14:55.498Z,32.90
2023-04-25T16:17:22.179Z,33.21
2023-04-25T16:19:49.724Z,33.41
2023-04-25T16:22:16.974Z,33.74
2023-04-25T16:24:44.094Z,33.33
2023-04-25T16:27:10.990Z,33.35
2023-04-25T16:29:37.872Z,33.53
2023-04-25T16:32:04.713Z,34.01
2023-04-25T16:34:31.587Z,33.95
2023-04-25T16:36:58.324Z,34.05
2023-04-25T16:39:24.944Z,34.35
2023-04-25T16:41:51.604Z,34.57
2023-04-25T16:44:18.374Z,34.65
2023-04-25T16:46:45.201Z,34.57
2023-04-25T16:49:11.814Z,34.51
2023-04-25T16:51:39.005Z,34.53
2023-04-25T16:54:05.830Z,34.66
2023-04-25T16:56:32.481Z,34.59
2023-04-25T16:58:59.117Z,34.74
2023-04-25T17:01:25.852Z,34.90
2023-04-25T17:03:52.598Z,35.10
2023-04-25T17:06:19.341Z,35.50
2023-04-25T17:08:46.050Z,36.18
2023-04-25T17:11:12.717Z,36.26
2023-04-25T17:13:39.546Z,37.15
2023-04-25T17:16:06.916Z,37.43
2023-04-25T17:18:33.634Z,38.82
2023-04-25T17:21:01.480Z,39.47
2023-04-25T17:23:28.153Z,39.17
2023-04-25T17:25:55.124Z,38.82
2023-04-25T17:28:21.924Z,40.10
2023-04-25T17:30:48.795Z,40.89
2023-04-25T17:33:16.055Z,39.77
2023-04-25T17:35:42.682Z,40.80
2023-04-25T17:38:09.461Z,41.64
2023-04-25T17:40:36.191Z,42.34
2023-04-25T17:43:03.002Z,42.70
2023-04-25T17:45:34.033Z,43.07
2023-04-25T17:48:01.714Z,43.80
2023-04-25T17:50:28.897Z,44.60
2023-04-25T17:52:55.800Z,44.94
2023-04-25T17:55:23.269Z,44.81
2023-04-25T17:57:50.035Z,44.10
2023-04-25T18:00:18.195Z,44.17
2023-04-25T18:02:46.972Z,43.37
2023-04-25T18:05:14.973Z,43.60
2023-04-25T18:07:41.710Z,43.80
2023-04-25T18:10:11.066Z,43.73
2023-04-25T18:12:37.866Z,44.02
2023-04-25T18:15:06.270Z,43.36
2023-04-25T18:17:39.156Z,42.95
2023-04-25T18:20:13.171Z,42.82
2023-04-25T18:22:40.562Z,43.11
2023-04-25T18:25:09.188Z,44.89
2023-04-25T18:27:37.387Z,45.99
2023-04-25T18:30:08.799Z,45.98
2023-04-25T18:32:36.598Z,46.78
2023-04-25T18:35:04.092Z,47.24
2023-04-25T18:37:31.511Z,46.71
2023-04-25T18:39:58.701Z,46.68
2023-04-25T18:42:25.510Z,46.43
2023-04-25T18:44:52.154Z,47.34
2023-04-25T18:47:18.813Z,48.00
2023-04-25T18:49:47.165Z,48.24
2023-04-25T18:52:15.473Z,48.19
2023-04-25T18:54:42.354Z,48.04
2023-04-25T18:57:11.014Z,48.04
2023-04-25T18:59:37.675Z,48.48
2023-04-25T19:02:04.596Z,48.64
2023-04-25T19:04:31.735Z,48.31
2023-04-25T19:06:59.057Z,48.68
2023-04-25T19:09:25.812Z,49.17
2023-04-25T19:11:52.478Z,49.26
2023-04-25T19:14:19.072Z,49.31
2023-04-25T19:16:45.879Z,49.71
2023-04-25T19:19:12.580Z,49.49
2023-04-25T19:21:39.315Z,50.42
2023-04-25T19:24:06.576Z,50.17
2023-04-25T19:26:33.399Z,51.16
2023-04-25T19:29:05.329Z,52.01
2023-04-25T19:31:33.886Z,51.82
2023-04-25T19:34:00.671Z,51.53
2023-04-25T19:36:28.258Z,51.24
2023-04-25T19:39:01.422Z,51.36
2023-04-25T19:41:28.612Z,51.54
2023-04-25T19:43:55.459Z,51.35
2023-04-25T19:46:23.001Z,51.18
2023-04-25T19:48:49.920Z,51.47
2023-04-25T19:51:16.527Z,51.60
2023-04-25T19:53:43.148Z,52.15
2023-04-25T19:56:10.384Z,52.31
2023-04-25T19:58:37.729Z,52.98
2023-04-25T20:01:04.541Z,53.17
2023-04-25T20:03:31.587Z,53.30
2023-04-25T20:05:58.486Z,53.06
2023-04-25T20:08:26.067Z,53.42
2023-04-25T20:10:53.070Z,53.90
2023-04-25T20:13:19.805Z,54.38
2023-04-25T20:15:46.834Z,55.00
2023-04-25T20:18:13.903Z,55.52
2023-04-25T20:20:40.949Z,56.07
2023-04-25T20:23:07.676Z,56.58
2023-04-25T20:25:35.415Z,56.83
2023-04-25T20:28:01.963Z,57.52
2023-04-25T20:30:28.786Z,57.96
2023-04-25T20:32:55.950Z,58.10
2023-04-25T20:35:22.891Z,58.52
2023-04-25T20:37:50.391Z,59.05
2023-04-25T20:40:17.072Z,60.06
2023-04-25T20:42:45.461Z,61.04
2023-04-25T20:45:12.554Z,61.92
2023-04-25T20:47:40.304Z,62.63
2023-04-25T20:50:07.932Z,63.05
2023-04-25T20:52:36.733Z,63.56
2023-04-25T20:55:05.113Z,63.95
2023-04-25T20:57:32.144Z,64.33
2023-04-25T20:59:58.772Z,64.77
2023-04-25T21:02:25.533Z,65.13
2023-04-25T21:04:52.309Z,65.92
2023-04-25T21:07:19.054Z,66.42
2023-04-25T21:09:46.789Z,67.00
2023-04-25T21:12:13.369Z,67.57
2023-04-25T21:14:40.203Z,68.22
2023-04-25T21:17:07.244Z,68.95
2023-04-25T21:19:34.365Z,69.68
2023-04-25T21:22:03.055Z,70.28
2023-04-25T21:24:32.320Z,71.08
2023-04-25T21:26:58.924Z,71.72
2023-04-25T21:29:25.757Z,72.19
2023-04-25T21:31:52.513Z,72.74
2023-04-25T21:34:19.321Z,73.22
2023-04-25T21:36:46.036Z,73.63
2023-04-25T21:39:14.307Z,74.27
2023-04-25T21:41:42.906Z,75.06
2023-04-25T21:44:11.950Z,76.11
2023-04-25T21:46:38.644Z,76.85
2023-04-25T21:49:06.337Z,77.25
2023-04-25T21:51:33.151Z,78.31
2023-04-25T21:54:04.632Z,78.81
2023-04-25T21:56:32.152Z,79.41
2023-04-25T21:58:58.791Z,80.23
2023-04-25T22:01:26.409Z,80.46
2023-04-25T22:03:53.527Z,81.04
2023-04-25T22:06:20.405Z,81.84
2023-04-25T22:08:47.301Z,82.35
2023-04-25T22:11:14.109Z,82.74
2023-04-25T22:13:40.749Z,83.35
2023-04-25T22:16:11.713Z,83.93
2023-04-25T22:18:42.734Z,84.51
2023-04-25T22:21:09.651Z,84.88
2023-04-25T22:23:36.809Z,84.92
2023-04-25T22:26:03.941Z,85.32
2023-04-25T22:28:30.964Z,85.24
2023-04-25T22:30:58.097Z,85.36
2023-04-25T22:33:24.742Z,86.11
2023-04-25T22:35:51.310Z,86.56
2023-04-25T22:38:17.947Z,86.89
2023-04-25T22:40:47.373Z,86.99
2023-04-25T22:43:15.249Z,87.42
2023-04-25T22:45:42.085Z,87.95
2023-04-25T22:48:08.898Z,88.14
2023-04-25T22:50:39.042Z,88.16
2023-04-25T22:53:12.988Z,88.41
2023-04-25T22:55:40.477Z,88.51
2023-04-25T22:58:08.815Z,88.83
2023-04-25T23:00:36.961Z,89.00
2023-04-25T23:03:04.040Z,89.36
2023-04-25T23:05:32.110Z,89.64
2023-04-25T23:07:59.204Z,89.57
2023-04-25T23:10:27.355Z,89.90
2023-04-25T23:12:57.450Z,90.35
2023-04-25T23:15:30.310Z,90.80
2023-04-25T23:17:57.529Z,91.32
2023-04-25T23:20:24.389Z,91.85
2023-04-25T23:22:51.140Z,92.34
2023-04-25T23:25:18.498Z,92.50
2023-04-25T23:27:45.554Z,92.53
2023-04-25T23:30:12.578Z,92.46
2023-04-25T23:32:39.682Z,92.50
2023-04-25T23:35:06.714Z,92.70
2023-04-25T23:37:34.448Z,92.92
2023-04-25T23:40:01.321Z,93.19
2023-04-25T23:42:28.201Z,93.44
2023-04-25T23:44:54.911Z,93.74
2023-04-25T23:47:21.620Z,94.08
2023-04-25T23:49:48.216Z,94.39
2023-04-25T23:52:15.378Z,94.90
2023-04-25T23:54:42.180Z,95.59
2023-04-25T23:57:08.787Z,96.06
2023-04-25T23:59:35.634Z,96.63
